createdAt,value
2017-11-20T00:00:12.958Z,19.58
2017-11-20T00:01:25.501Z,19.71
2017-11-20T00:02:38.500Z,19.61
2017-11-20T00:03:51.517Z,19.68
2017-11-20T00:05:04.507Z,19.63
2017-11-20T00:06:17.477Z,19.65
2017-11-20T00:07:30.443Z,19.65
2017-11-20T00:08:43.384Z,19.56
2017-11-20T00:09:56.449Z,19.58
2017-11-20T00:11:09.440Z,19.55
2017-11-20T00:12:22.428Z,19.62
2017-11-20T00:13:35.381Z,19.58
2017-11-20T00:14:48.352Z,19.58
2017-11-20T00:16:00.914Z,19.58
2017-11-20T00:17:13.474Z,19.55
2017-11-20T00:18:26.147Z,19.56
2017-11-20T00:19:38.887Z,19.55
2017-11-20T00:20:51.880Z,19.54
2017-11-20T00:22:04.859Z,19.59
2017-11-20T00:23:17.854Z,19.66
2017-11-20T00:24:30.865Z,19.63
2017-11-20T00:25:43.407Z,19.66
2017-11-20T00:26:56.386Z,19.69
2017-11-20T00:28:09.116Z,19.65
2017-11-20T00:29:21.654Z,19.71
2017-11-20T00:30:34.638Z,19.56
2017-11-20T00:31:47.253Z,19.59
2017-11-20T00:33:00.243Z,19.68
2017-11-20T00:34:13.223Z,19.61
2017-11-20T00:35:26.225Z,19.59
2017-11-20T00:36:37.828Z,19.62
2017-11-20T00:37:50.794Z,19.62
2017-11-20T00:39:03.781Z,19.68
2017-11-20T00:40:16.765Z,19.59
2017-11-20T00:41:28.789Z,19.69
2017-11-20T00:42:41.789Z,19.59
2017-11-20T00:43:54.312Z,19.59
2017-11-20T00:45:07.331Z,19.73
2017-11-20T00:46:19.907Z,19.66
2017-11-20T00:47:32.888Z,19.62
2017-11-20T00:48:45.868Z,19.55
2017-11-20T00:49:58.868Z,19.58
2017-11-20T00:51:11.372Z,19.48
2017-11-20T00:52:24.345Z,19.48
2017-11-20T00:53:37.302Z,19.37
2017-11-20T00:54:50.370Z,19.4
2017-11-20T00:56:03.373Z,19.29
2017-11-20T00:57:15.472Z,19.26
2017-11-20T00:58:28.486Z,19.26
2017-11-20T00:59:41.529Z,19.18
2017-11-20T01:00:54.028Z,19.19
2017-11-20T01:02:06.979Z,19.21
2017-11-20T01:03:19.491Z,19.19
2017-11-20T01:04:32.517Z,19.25
2017-11-20T01:05:45.495Z,19.22
2017-11-20T01:06:58.505Z,19.21
2017-11-20T01:08:11.718Z,19.31
2017-11-20T01:09:24.727Z,19.37
2017-11-20T01:10:37.273Z,19.29
2017-11-20T01:11:50.264Z,19.44
2017-11-20T01:13:03.225Z,19.44
2017-11-20T01:14:16.231Z,19.41
2017-11-20T01:15:29.241Z,19.47
2017-11-20T01:16:42.218Z,19.46
2017-11-20T01:17:54.764Z,19.43
2017-11-20T01:19:07.504Z,19.54
2017-11-20T01:20:20.501Z,19.43
2017-11-20T01:21:33.023Z,19.48
2017-11-20T01:22:46.222Z,19.4
2017-11-20T01:23:58.750Z,19.46
2017-11-20T01:25:11.328Z,19.48
2017-11-20T01:26:23.817Z,19.5
2017-11-20T01:27:36.852Z,19.48
2017-11-20T01:28:49.795Z,19.47
2017-11-20T01:30:02.763Z,19.36
2017-11-20T01:31:15.983Z,19.4
2017-11-20T01:32:28.545Z,19.39
2017-11-20T01:33:41.504Z,19.32
2017-11-20T01:34:54.501Z,19.32
2017-11-20T01:36:07.500Z,19.21
2017-11-20T01:37:20.503Z,19.22
2017-11-20T01:38:33.528Z,19.19
2017-11-20T01:39:46.157Z,19.16
2017-11-20T01:40:59.109Z,19.14
2017-11-20T01:42:12.066Z,19.16
2017-11-20T01:43:25.069Z,19.21
2017-11-20T01:44:38.091Z,19.18
2017-11-20T01:45:50.622Z,19.16
2017-11-20T01:47:03.157Z,19.25
2017-11-20T01:48:15.721Z,19.23
2017-11-20T01:49:28.720Z,19.25
2017-11-20T01:50:41.722Z,19.22
2017-11-20T01:51:54.688Z,19.23
2017-11-20T01:53:07.670Z,19.29
2017-11-20T01:54:20.702Z,19.19
2017-11-20T01:55:33.707Z,19.25
2017-11-20T01:56:46.879Z,19.25
2017-11-20T01:57:59.890Z,19.32
2017-11-20T01:59:11.976Z,19.36
2017-11-20T02:00:24.739Z,19.39
2017-11-20T02:01:37.252Z,19.32
2017-11-20T02:02:50.265Z,19.4
2017-11-20T02:04:03.305Z,19.37
2017-11-20T02:05:16.331Z,19.39
2017-11-20T02:06:28.357Z,19.32
2017-11-20T02:07:40.851Z,19.41
2017-11-20T02:08:53.852Z,19.41
2017-11-20T02:10:06.404Z,19.36
2017-11-20T02:11:18.945Z,19.37
2017-11-20T02:12:31.973Z,19.41
2017-11-20T02:13:44.791Z,19.37
2017-11-20T02:14:57.818Z,19.41
2017-11-20T02:16:10.809Z,19.46
2017-11-20T02:17:23.336Z,19.46
2017-11-20T02:18:36.074Z,19.37
2017-11-20T02:19:49.074Z,19.36
2017-11-20T02:21:02.261Z,19.37
2017-11-20T02:22:15.202Z,19.4
2017-11-20T02:23:28.196Z,19.37
2017-11-20T02:24:41.424Z,19.36
2017-11-20T02:25:54.644Z,19.39
2017-11-20T02:27:07.683Z,19.41
2017-11-20T02:28:20.252Z,19.29
2017-11-20T02:29:33.262Z,19.37
2017-11-20T02:30:46.239Z,19.36
2017-11-20T02:31:59.258Z,19.37
2017-11-20T02:33:12.284Z,19.4
2017-11-20T02:34:25.263Z,19.39
2017-11-20T02:35:38.262Z,19.39
2017-11-20T02:36:50.797Z,19.37
2017-11-20T02:38:04.051Z,19.31
2017-11-20T02:39:17.050Z,19.39
2017-11-20T02:40:30.061Z,19.46
2017-11-20T02:41:43.094Z,19.33
2017-11-20T02:42:55.687Z,19.44
2017-11-20T02:44:08.690Z,19.37
2017-11-20T02:45:21.901Z,19.44
2017-11-20T02:46:34.422Z,19.33
2017-11-20T02:47:47.437Z,19.37
2017-11-20T02:49:00.338Z,19.36
2017-11-20T02:50:13.323Z,19.39
2017-11-20T02:51:27.110Z,19.4
2017-11-20T02:52:40.082Z,19.33
2017-11-20T02:53:52.132Z,19.36
2017-11-20T02:55:04.649Z,19.36
2017-11-20T02:56:17.813Z,19.36
2017-11-20T02:57:30.787Z,19.4
2017-11-20T02:58:43.763Z,19.37
2017-11-20T02:59:56.821Z,19.39
2017-11-20T03:01:09.379Z,19.39
2017-11-20T03:02:22.381Z,19.32
2017-11-20T03:03:35.427Z,19.36
2017-11-20T03:04:48.386Z,19.29
2017-11-20T03:06:01.375Z,19.29
2017-11-20T03:07:13.934Z,19.23
2017-11-20T03:08:26.459Z,19.21
2017-11-20T03:09:39.438Z,19.19
2017-11-20T03:10:51.976Z,19.25
2017-11-20T03:12:04.954Z,19.18
2017-11-20T03:13:17.924Z,19.14
2017-11-20T03:14:30.481Z,19.25
2017-11-20T03:15:43.469Z,19.22
2017-11-20T03:16:56.437Z,19.21
2017-11-20T03:18:09.411Z,19.16
2017-11-20T03:19:22.404Z,19.16
2017-11-20T03:20:35.389Z,19.21
2017-11-20T03:21:48.439Z,19.23
2017-11-20T03:23:01.389Z,19.21
2017-11-20T03:24:13.447Z,19.21
2017-11-20T03:25:26.477Z,19.19
2017-11-20T03:26:39.442Z,19.14
2017-11-20T03:27:52.392Z,19.28
2017-11-20T03:29:04.455Z,19.18
2017-11-20T03:30:17.493Z,19.14
2017-11-20T03:31:30.007Z,19.23
2017-11-20T03:32:42.968Z,19.14
2017-11-20T03:33:55.973Z,19.25
2017-11-20T03:35:09.617Z,19.29
2017-11-20T03:36:22.619Z,19.18
2017-11-20T03:37:35.650Z,19.18
2017-11-20T03:38:48.186Z,19.11
2017-11-20T03:40:00.735Z,19.11
2017-11-20T03:41:13.729Z,19.1
2017-11-20T03:42:26.728Z,19.18
2017-11-20T03:43:39.725Z,19.13
2017-11-20T03:44:52.253Z,19.1
2017-11-20T03:46:04.775Z,19.04
2017-11-20T03:47:17.785Z,19.06
2017-11-20T03:48:30.748Z,19.06
2017-11-20T03:49:43.267Z,19.06
2017-11-20T03:50:56.244Z,19.06
2017-11-20T03:52:09.228Z,19.07
2017-11-20T03:53:22.235Z,19.18
2017-11-20T03:54:35.243Z,19.04
2017-11-20T03:55:48.232Z,19.06
2017-11-20T03:57:00.996Z,19.06
2017-11-20T03:58:13.521Z,19.1
2017-11-20T03:59:26.521Z,19.1
2017-11-20T04:00:39.709Z,19.1
2017-11-20T04:01:52.248Z,19.11
2017-11-20T04:03:05.304Z,19
2017-11-20T04:04:18.397Z,18.99
2017-11-20T04:05:31.365Z,19.02
2017-11-20T04:06:43.897Z,19.02
2017-11-20T04:07:56.909Z,19.1
2017-11-20T04:09:09.925Z,19.11
2017-11-20T04:10:22.938Z,19.16
2017-11-20T04:11:35.985Z,19.21
2017-11-20T04:12:48.954Z,19.21
2017-11-20T04:14:01.934Z,19.22
2017-11-20T04:15:14.954Z,19.26
2017-11-20T04:16:27.965Z,19.26
2017-11-20T04:17:40.960Z,19.21
2017-11-20T04:18:53.072Z,19.32
2017-11-20T04:20:05.636Z,19.32
2017-11-20T04:21:18.583Z,19.32
2017-11-20T04:22:31.554Z,19.28
2017-11-20T04:23:44.542Z,19.32
2017-11-20T04:24:57.525Z,19.39
2017-11-20T04:26:10.072Z,19.33
2017-11-20T04:27:22.582Z,19.33
2017-11-20T04:28:35.587Z,19.31
2017-11-20T04:29:48.593Z,19.36
2017-11-20T04:31:01.615Z,19.31
2017-11-20T04:32:14.172Z,19.39
2017-11-20T04:33:26.716Z,19.28
2017-11-20T04:34:39.241Z,19.36
2017-11-20T04:35:52.257Z,19.4
2017-11-20T04:37:04.773Z,19.36
2017-11-20T04:38:17.766Z,19.37
2017-11-20T04:39:30.318Z,19.39
2017-11-20T04:40:43.331Z,19.37
2017-11-20T04:41:55.855Z,19.36
2017-11-20T04:43:08.815Z,19.39
2017-11-20T04:44:21.791Z,19.33
2017-11-20T04:45:34.342Z,19.4
2017-11-20T04:46:46.836Z,19.39
2017-11-20T04:47:59.815Z,19.37
2017-11-20T04:49:12.798Z,19.39
2017-11-20T04:50:25.837Z,19.37
2017-11-20T04:51:38.882Z,19.41
2017-11-20T04:52:51.888Z,19.36
2017-11-20T04:54:04.864Z,19.4
2017-11-20T04:55:17.869Z,19.4
2017-11-20T04:56:30.840Z,19.36
2017-11-20T04:57:43.358Z,19.41
2017-11-20T04:58:56.334Z,19.44
2017-11-20T05:00:08.860Z,19.48
2017-11-20T05:01:21.860Z,19.44
2017-11-20T05:02:33.881Z,19.4
2017-11-20T05:03:46.889Z,19.44
2017-11-20T05:05:00.056Z,19.43
2017-11-20T05:06:12.085Z,19.47
2017-11-20T05:07:24.112Z,19.43
2017-11-20T05:08:36.611Z,19.41
2017-11-20T05:09:49.647Z,19.46
2017-11-20T05:11:02.158Z,19.56
2017-11-20T05:12:15.190Z,19.43
2017-11-20T05:13:28.229Z,19.48
2017-11-20T05:14:41.231Z,19.51
2017-11-20T05:16:25.470Z,19.47
2017-11-20T05:17:38.451Z,19.5
2017-11-20T05:18:51.437Z,19.5
2017-11-20T05:20:04.465Z,19.44
2017-11-20T05:21:17.507Z,19.41
2017-11-20T05:22:30.533Z,19.41
2017-11-20T05:23:43.031Z,19.44
2017-11-20T05:24:56.019Z,19.39
2017-11-20T05:26:08.559Z,19.46
2017-11-20T05:27:21.073Z,19.44
2017-11-20T05:28:34.074Z,19.32
2017-11-20T05:29:46.583Z,19.46
2017-11-20T05:30:59.780Z,19.4
2017-11-20T05:32:12.774Z,19.39
2017-11-20T05:33:25.763Z,19.37
2017-11-20T05:34:38.765Z,19.36
2017-11-20T05:35:51.260Z,19.37
2017-11-20T05:37:04.306Z,19.39
2017-11-20T05:38:17.021Z,19.37
2017-11-20T05:39:30.004Z,19.39
2017-11-20T05:40:42.998Z,19.33
2017-11-20T05:41:56.013Z,19.36
2017-11-20T05:43:09.024Z,19.39
2017-11-20T05:44:21.540Z,19.43
2017-11-20T05:45:34.498Z,19.4
2017-11-20T05:46:47.509Z,19.37
2017-11-20T05:48:00.572Z,19.39
2017-11-20T05:49:13.601Z,19.39
2017-11-20T05:50:26.552Z,19.4
2017-11-20T05:51:39.572Z,19.33
2017-11-20T05:52:52.556Z,19.37
2017-11-20T05:54:05.571Z,19.37
2017-11-20T05:55:18.099Z,19.4
2017-11-20T05:56:31.138Z,19.39
2017-11-20T05:57:43.700Z,19.36
2017-11-20T05:58:55.298Z,19.39
2017-11-20T06:00:08.270Z,19.4
2017-11-20T06:01:21.282Z,19.4
2017-11-20T06:02:33.804Z,19.36
2017-11-20T06:03:46.779Z,19.32
2017-11-20T06:04:59.302Z,19.4
2017-11-20T06:06:12.316Z,19.31
2017-11-20T06:07:25.288Z,19.28
2017-11-20T06:08:37.794Z,19.33
2017-11-20T06:09:50.953Z,19.32
2017-11-20T06:11:03.984Z,19.19
2017-11-20T06:12:16.529Z,19.19
2017-11-20T06:13:29.055Z,19.28
2017-11-20T06:14:42.046Z,19.25
2017-11-20T06:15:55.026Z,19.18
2017-11-20T06:17:08.253Z,19.26
2017-11-20T06:18:21.244Z,19.25
2017-11-20T06:19:34.264Z,19.23
2017-11-20T06:20:46.350Z,19.25
2017-11-20T06:21:58.885Z,19.26
2017-11-20T06:23:11.387Z,19.23
2017-11-20T06:24:24.464Z,19.26
2017-11-20T06:25:37.397Z,19.21
2017-11-20T06:26:49.930Z,19.29
2017-11-20T06:28:02.901Z,19.33
2017-11-20T06:29:15.901Z,19.26
2017-11-20T06:30:28.837Z,19.31
2017-11-20T06:31:41.838Z,19.32
2017-11-20T06:32:54.775Z,19.29
2017-11-20T06:34:07.997Z,19.32
2017-11-20T06:35:21.003Z,19.36
2017-11-20T06:36:34.006Z,19.36
2017-11-20T06:37:47.037Z,19.39
2017-11-20T06:39:00.064Z,19.36
2017-11-20T06:40:12.594Z,19.41
2017-11-20T06:41:25.670Z,19.37
2017-11-20T06:42:38.683Z,19.37
2017-11-20T06:43:51.680Z,19.39
2017-11-20T06:45:04.147Z,19.41
2017-11-20T06:46:17.111Z,19.36
2017-11-20T06:47:30.090Z,19.37
2017-11-20T06:48:43.271Z,19.39
2017-11-20T06:49:56.255Z,19.44
2017-11-20T06:51:09.214Z,19.46
2017-11-20T06:52:21.724Z,19.4
2017-11-20T06:53:34.702Z,19.44
2017-11-20T06:54:46.316Z,19.48
2017-11-20T06:55:59.309Z,19.4
2017-11-20T06:57:12.339Z,19.48
2017-11-20T06:58:24.867Z,19.4
2017-11-20T06:59:37.879Z,19.51
2017-11-20T07:00:50.909Z,19.48
2017-11-20T07:02:03.887Z,19.36
2017-11-20T07:03:17.178Z,19.41
2017-11-20T07:04:30.121Z,19.39
2017-11-20T07:05:43.089Z,19.36
2017-11-20T07:06:55.824Z,19.31
2017-11-20T07:08:08.097Z,19.33
2017-11-20T07:09:20.658Z,19.39
2017-11-20T07:10:33.650Z,19.37
2017-11-20T07:11:46.648Z,19.44
2017-11-20T07:12:58.675Z,19.37
2017-11-20T07:14:11.674Z,19.4
2017-11-20T07:15:24.685Z,19.36
2017-11-20T07:16:37.232Z,19.46
2017-11-20T07:17:50.243Z,19.46
2017-11-20T07:19:03.243Z,19.41
2017-11-20T07:20:16.271Z,19.4
2017-11-20T07:21:28.794Z,19.46
2017-11-20T07:22:41.774Z,19.47
2017-11-20T07:23:54.309Z,19.44
2017-11-20T07:25:07.294Z,19.54
2017-11-20T07:26:19.342Z,19.51
2017-11-20T07:27:32.358Z,19.54
2017-11-20T07:28:45.343Z,19.48
2017-11-20T07:29:58.365Z,19.48
2017-11-20T07:31:10.449Z,19.56
2017-11-20T07:32:23.021Z,19.5
2017-11-20T07:33:35.999Z,19.55
2017-11-20T07:34:48.514Z,19.48
2017-11-20T07:36:01.529Z,19.5
2017-11-20T07:37:14.065Z,19.5
2017-11-20T07:38:27.060Z,19.43
2017-11-20T07:39:40.101Z,19.48
2017-11-20T07:40:51.704Z,19.54
2017-11-20T07:42:04.229Z,19.56
2017-11-20T07:43:17.251Z,19.55
2017-11-20T07:44:30.235Z,19.54
2017-11-20T07:45:43.404Z,19.43
2017-11-20T07:46:56.358Z,19.54
2017-11-20T07:48:09.343Z,19.46
2017-11-20T07:49:21.413Z,19.47
2017-11-20T07:50:33.948Z,19.51
2017-11-20T07:51:46.901Z,19.39
2017-11-20T07:52:59.933Z,19.46
2017-11-20T07:54:12.961Z,19.48
2017-11-20T07:55:25.545Z,19.4
2017-11-20T07:56:38.548Z,19.46
2017-11-20T07:57:51.167Z,19.54
2017-11-20T07:59:04.156Z,19.51
2017-11-20T08:00:17.175Z,19.44
2017-11-20T08:01:30.183Z,19.55
2017-11-20T08:02:43.247Z,19.55
2017-11-20T08:03:56.211Z,19.46
2017-11-20T08:05:09.288Z,19.54
2017-11-20T08:06:22.259Z,19.46
2017-11-20T08:07:34.781Z,19.48
2017-11-20T08:08:47.758Z,19.5
2017-11-20T08:10:00.294Z,19.46
2017-11-20T08:11:12.793Z,19.47
2017-11-20T08:12:27.117Z,19.39
2017-11-20T08:13:39.644Z,19.47
2017-11-20T08:14:52.420Z,19.46
2017-11-20T08:16:05.449Z,19.48
2017-11-20T08:17:17.962Z,19.48
2017-11-20T08:18:30.694Z,19.44
2017-11-20T08:19:43.688Z,19.39
2017-11-20T08:20:56.718Z,19.33
2017-11-20T08:22:09.212Z,19.44
2017-11-20T08:23:22.197Z,19.39
2017-11-20T08:24:35.163Z,19.39
2017-11-20T08:25:47.864Z,19.43
2017-11-20T08:27:00.868Z,19.48
2017-11-20T08:28:13.855Z,19.41
2017-11-20T08:29:26.849Z,19.39
2017-11-20T08:30:39.862Z,19.48
2017-11-20T08:31:52.887Z,19.58
2017-11-20T08:33:05.408Z,19.58
2017-11-20T08:34:18.392Z,19.56
2017-11-20T08:35:31.415Z,19.51
2017-11-20T08:36:43.950Z,19.62
2017-11-20T08:37:56.967Z,19.63
2017-11-20T08:39:09.509Z,19.58
2017-11-20T08:40:22.534Z,19.65
2017-11-20T08:41:35.494Z,19.66
2017-11-20T08:42:47.558Z,19.62
2017-11-20T08:44:00.514Z,19.69
2017-11-20T08:45:13.512Z,19.61
2017-11-20T08:46:26.075Z,19.69
2017-11-20T08:47:39.107Z,19.63
2017-11-20T08:48:52.156Z,19.61
2017-11-20T08:50:05.161Z,19.62
2017-11-20T08:51:17.691Z,19.71
2017-11-20T08:52:29.765Z,19.63
2017-11-20T08:53:42.272Z,19.65
2017-11-20T08:54:55.245Z,19.61
2017-11-20T08:56:07.777Z,19.74
2017-11-20T08:57:20.800Z,19.74
2017-11-20T08:58:33.840Z,19.78
2017-11-20T08:59:46.832Z,19.87
2017-11-20T09:00:59.878Z,19.8
2017-11-20T09:02:10.973Z,19.8
2017-11-20T09:03:23.942Z,19.84
2017-11-20T09:04:36.434Z,19.94
2017-11-20T09:05:49.456Z,19.87
2017-11-20T09:07:02.436Z,19.96
2017-11-20T09:08:15.448Z,19.99
2017-11-20T09:09:27.505Z,19.98
2017-11-20T09:10:40.528Z,20.05
2017-11-20T09:11:53.521Z,20.18
2017-11-20T09:13:06.495Z,20.1
2017-11-20T09:14:19.448Z,20.2
2017-11-20T09:15:32.420Z,20.23
2017-11-20T09:16:44.915Z,20.16
2017-11-20T09:17:57.914Z,20.18
2017-11-20T09:19:11.099Z,20.16
2017-11-20T09:20:24.045Z,20.17
2017-11-20T09:21:37.273Z,20.2
2017-11-20T09:22:50.243Z,20.17
2017-11-20T09:24:03.249Z,20.17
2017-11-20T09:25:16.266Z,20.26
2017-11-20T09:26:29.239Z,20.36
2017-11-20T09:27:42.278Z,20.36
2017-11-20T09:28:53.860Z,20.39
2017-11-20T09:30:06.857Z,20.31
2017-11-20T09:31:19.865Z,20.39
2017-11-20T09:32:32.412Z,20.31
2017-11-20T09:33:45.437Z,20.33
2017-11-20T09:34:58.438Z,20.26
2017-11-20T09:36:11.483Z,20.31
2017-11-20T09:37:24.005Z,20.33
2017-11-20T09:38:36.996Z,20.26
2017-11-20T09:39:50.019Z,20.28
2017-11-20T09:41:03.179Z,20.21
2017-11-20T09:42:15.456Z,20.26
2017-11-20T09:43:28.478Z,20.28
2017-11-20T09:44:41.009Z,20.26
2017-11-20T09:45:54.028Z,20.31
2017-11-20T09:47:06.107Z,20.28
2017-11-20T09:48:18.631Z,20.41
2017-11-20T09:49:31.171Z,20.38
2017-11-20T09:50:44.155Z,20.38
2017-11-20T09:51:57.169Z,20.43
2017-11-20T09:53:10.162Z,20.47
2017-11-20T09:54:22.684Z,20.51
2017-11-20T09:55:35.678Z,20.52
2017-11-20T09:56:48.224Z,20.58
2017-11-20T09:58:01.214Z,20.48
2017-11-20T09:59:14.190Z,20.61
2017-11-20T10:00:27.201Z,20.48
2017-11-20T10:01:40.205Z,20.47
2017-11-20T10:02:53.211Z,20.5
2017-11-20T10:04:06.191Z,20.42
2017-11-20T10:05:19.208Z,20.51
2017-11-20T10:06:32.207Z,20.48
2017-11-20T10:07:45.175Z,20.51
2017-11-20T10:08:57.239Z,20.51
2017-11-20T10:10:10.277Z,20.59
2017-11-20T10:11:23.252Z,20.52
2017-11-20T10:12:35.815Z,20.54
2017-11-20T10:13:48.812Z,20.5
2017-11-20T10:15:01.367Z,20.59
2017-11-20T10:16:13.965Z,20.58
2017-11-20T10:17:26.490Z,20.55
2017-11-20T10:18:39.518Z,20.51
2017-11-20T10:19:52.539Z,20.55
2017-11-20T10:21:05.715Z,20.55
2017-11-20T10:22:18.721Z,20.62
2017-11-20T10:23:31.286Z,20.61
2017-11-20T10:24:43.773Z,20.7
2017-11-20T10:25:56.294Z,20.79
2017-11-20T10:27:09.317Z,20.95
2017-11-20T10:28:23.218Z,21.09
2017-11-20T10:29:36.575Z,21.27
2017-11-20T10:30:50.330Z,21.38
2017-11-20T10:32:04.014Z,21.46
2017-11-20T10:33:16.641Z,21.49
2017-11-20T10:34:30.279Z,21.43
2017-11-20T10:35:44.063Z,21.31
2017-11-20T10:36:57.915Z,21.29
2017-11-20T10:38:11.115Z,21.27
2017-11-20T10:39:24.833Z,21.25
2017-11-20T10:40:38.578Z,21.24
2017-11-20T10:41:52.217Z,21.27
2017-11-20T10:43:05.912Z,21.34
2017-11-20T10:44:19.595Z,21.38
2017-11-20T10:45:33.330Z,21.38
2017-11-20T10:46:47.059Z,21.42
2017-11-20T10:48:00.759Z,21.43
2017-11-20T10:49:14.455Z,21.35
2017-11-20T10:50:28.193Z,21.27
2017-11-20T10:51:41.890Z,21.09
2017-11-20T10:52:55.587Z,21.12
2017-11-20T10:54:09.445Z,21.25
2017-11-20T10:55:23.206Z,21.31
2017-11-20T10:56:36.892Z,21.19
2017-11-20T10:57:50.590Z,21.22
2017-11-20T10:59:04.286Z,21.19
2017-11-20T11:00:17.547Z,21.14
2017-11-20T11:01:30.725Z,21.07
2017-11-20T11:02:43.924Z,21.01
2017-11-20T11:03:57.615Z,21.04
2017-11-20T11:05:11.337Z,21.1
2017-11-20T11:06:24.530Z,21.09
2017-11-20T11:07:38.234Z,21.07
2017-11-20T11:08:52.723Z,21.14
2017-11-20T11:10:06.470Z,21.14
2017-11-20T11:11:20.197Z,21.17
2017-11-20T11:12:33.905Z,21.31
2017-11-20T11:13:47.596Z,21.4
2017-11-20T11:15:01.307Z,21.35
2017-11-20T11:16:15.025Z,21.38
2017-11-20T11:17:28.150Z,21.34
2017-11-20T11:18:40.766Z,21.42
2017-11-20T11:19:54.429Z,21.4
2017-11-20T11:21:07.641Z,21.49
2017-11-20T11:22:20.839Z,21.49
2017-11-20T11:23:34.547Z,21.49
2017-11-20T11:24:48.266Z,21.53
2017-11-20T11:26:02.112Z,21.47
2017-11-20T11:27:15.286Z,21.47
2017-11-20T11:28:28.651Z,21.58
2017-11-20T11:29:41.848Z,21.52
2017-11-20T11:30:55.530Z,21.56
2017-11-20T11:32:08.200Z,21.46
2017-11-20T11:33:22.999Z,21.49
2017-11-20T11:34:37.481Z,21.35
2017-11-20T11:35:52.991Z,21.35
2017-11-20T11:37:06.173Z,21.31
2017-11-20T11:38:19.874Z,21.22
2017-11-20T11:39:33.601Z,21.22
2017-11-20T11:40:47.302Z,21.22
2017-11-20T11:42:00.516Z,21.27
2017-11-20T11:43:13.963Z,21.17
2017-11-20T11:44:27.659Z,21.27
2017-11-20T11:45:40.838Z,21.17
2017-11-20T11:46:54.556Z,21.1
2017-11-20T11:48:08.259Z,21.22
2017-11-20T11:49:21.951Z,21.28
2017-11-20T11:50:35.122Z,21.52
2017-11-20T11:51:48.808Z,21.67
2017-11-20T11:53:02.013Z,21.75
2017-11-20T11:54:15.726Z,21.92
2017-11-20T11:55:28.911Z,21.86
2017-11-20T11:56:42.582Z,21.79
2017-11-20T11:57:55.749Z,21.54
2017-11-20T11:59:09.622Z,21.61
2017-11-20T12:00:23.306Z,21.61
2017-11-20T12:01:36.997Z,21.54
2017-11-20T12:02:50.806Z,21.47
2017-11-20T12:04:04.505Z,21.44
2017-11-20T12:05:18.202Z,21.38
2017-11-20T12:06:31.918Z,21.21
2017-11-20T12:07:45.129Z,21.29
2017-11-20T12:08:58.327Z,21.28
2017-11-20T12:10:12.008Z,21.28
2017-11-20T12:11:25.713Z,21.17
2017-11-20T12:12:39.465Z,21.13
2017-11-20T12:13:52.659Z,21.21
2017-11-20T12:15:05.843Z,21.25
2017-11-20T12:16:19.538Z,21.27
2017-11-20T12:17:32.689Z,21.31
2017-11-20T12:18:46.392Z,21.24
2017-11-20T12:19:59.612Z,21.27
2017-11-20T12:21:12.286Z,21.35
2017-11-20T12:22:25.973Z,21.35
2017-11-20T12:23:39.723Z,21.37
2017-11-20T12:24:52.925Z,21.32
2017-11-20T12:26:06.644Z,21.4
2017-11-20T12:27:20.302Z,21.47
2017-11-20T12:28:33.964Z,21.61
2017-11-20T12:29:47.760Z,21.54
2017-11-20T12:31:01.027Z,21.58
2017-11-20T12:32:13.749Z,21.53
2017-11-20T12:33:27.453Z,21.52
2017-11-20T12:34:40.974Z,21.47
2017-11-20T12:35:54.799Z,21.58
2017-11-20T12:37:08.527Z,21.56
2017-11-20T12:38:24.888Z,21.52
2017-11-20T12:39:45.417Z,21.54
2017-11-20T12:40:59.149Z,21.54
2017-11-20T12:42:12.884Z,21.72
2017-11-20T12:43:26.590Z,21.75
2017-11-20T12:44:40.309Z,21.8
2017-11-20T12:45:53.990Z,21.88
2017-11-20T12:47:07.193Z,21.8
2017-11-20T12:48:20.877Z,21.56
2017-11-20T12:49:34.574Z,21.47
2017-11-20T12:50:48.250Z,21.54
2017-11-20T12:52:01.947Z,21.62
2017-11-20T12:53:15.132Z,21.61
2017-11-20T12:54:28.598Z,21.59
2017-11-20T12:55:42.079Z,21.54
2017-11-20T12:56:55.792Z,21.59
2017-11-20T12:58:08.978Z,21.58
2017-11-20T12:59:22.726Z,21.53
2017-11-20T13:00:36.431Z,21.53
2017-11-20T13:01:50.156Z,21.56
2017-11-20T13:03:03.309Z,21.61
2017-11-20T13:04:16.976Z,21.53
2017-11-20T13:05:30.663Z,21.54
2017-11-20T13:06:44.309Z,21.52
2017-11-20T13:07:57.472Z,21.58
2017-11-20T13:09:11.170Z,21.59
2017-11-20T13:10:24.871Z,21.58
2017-11-20T13:11:38.064Z,21.59
2017-11-20T13:12:51.768Z,21.65
2017-11-20T13:14:05.495Z,21.59
2017-11-20T13:15:18.751Z,21.69
2017-11-20T13:16:32.496Z,21.77
2017-11-20T13:17:46.175Z,21.83
2017-11-20T13:18:59.830Z,21.96
2017-11-20T13:20:13.495Z,22.49
2017-11-20T13:21:27.206Z,23.02
2017-11-20T13:22:39.923Z,23.42
2017-11-20T13:23:53.661Z,23.94
2017-11-20T13:25:06.859Z,24.47
2017-11-20T13:26:20.022Z,24.81
2017-11-20T13:27:33.936Z,24.91
2017-11-20T13:28:47.996Z,24.84
2017-11-20T13:30:01.735Z,24.83
2017-11-20T13:31:14.925Z,24.87
2017-11-20T13:32:28.612Z,25.02
2017-11-20T13:33:42.329Z,25.15
2017-11-20T13:34:55.523Z,25.06
2017-11-20T13:36:09.222Z,24.96
2017-11-20T13:37:22.405Z,24.83
2017-11-20T13:38:36.087Z,24.57
2017-11-20T13:39:49.264Z,24.05
2017-11-20T13:41:02.999Z,23.84
2017-11-20T13:42:16.288Z,23.8
2017-11-20T13:43:30.050Z,23.69
2017-11-20T13:44:43.784Z,23.68
2017-11-20T13:45:56.970Z,23.58
2017-11-20T13:47:10.663Z,23.48
2017-11-20T13:48:23.857Z,23.36
2017-11-20T13:49:37.589Z,23.42
2017-11-20T13:50:51.482Z,23.53
2017-11-20T13:52:04.657Z,23.61
2017-11-20T13:53:17.814Z,23.54
2017-11-20T13:54:30.997Z,23.4
2017-11-20T13:55:44.748Z,23.23
2017-11-20T13:56:57.931Z,23.15
2017-11-20T13:58:11.574Z,23.12
2017-11-20T13:59:24.743Z,23.04
2017-11-20T14:00:37.922Z,23.19
2017-11-20T14:01:50.611Z,23.02
2017-11-20T14:03:04.341Z,23.05
2017-11-20T14:04:18.021Z,23.02
2017-11-20T14:05:31.785Z,22.92
2017-11-20T14:06:45.465Z,22.72
2017-11-20T14:07:59.173Z,22.73
2017-11-20T14:09:12.377Z,22.77
2017-11-20T14:10:56.865Z,22.73
2017-11-20T14:12:10.016Z,22.76
2017-11-20T14:13:23.747Z,22.7
2017-11-20T14:14:36.914Z,22.73
2017-11-20T14:15:50.631Z,22.7
2017-11-20T14:17:03.952Z,22.67
2017-11-20T14:18:16.984Z,22.55
2017-11-20T14:19:29.496Z,22.52
2017-11-20T14:20:42.489Z,22.51
2017-11-20T14:21:55.050Z,22.49
2017-11-20T14:23:07.772Z,22.45
2017-11-20T14:24:20.741Z,22.45
2017-11-20T14:25:32.805Z,22.45
2017-11-20T14:26:45.338Z,22.36
2017-11-20T14:27:58.356Z,22.27
2017-11-20T14:29:11.376Z,22.22
2017-11-20T14:30:24.392Z,22.07
2017-11-20T14:31:36.466Z,21.99
2017-11-20T14:32:49.002Z,21.94
2017-11-20T14:34:01.982Z,21.86
2017-11-20T14:35:14.983Z,21.69
2017-11-20T14:36:27.951Z,21.59
2017-11-20T14:37:40.930Z,21.54
2017-11-20T14:38:53.954Z,21.54
2017-11-20T14:40:06.945Z,21.4
2017-11-20T14:41:19.474Z,21.28
2017-11-20T14:42:32.011Z,21.28
2017-11-20T14:43:45.045Z,21.28
2017-11-20T14:44:58.017Z,21.09
2017-11-20T14:46:11.006Z,20.98
2017-11-20T14:47:24.023Z,20.92
2017-11-20T14:48:37.032Z,20.73
2017-11-20T14:49:50.018Z,20.51
2017-11-20T14:51:02.559Z,20.58
2017-11-20T14:52:15.078Z,20.36
2017-11-20T14:53:27.131Z,20.28
2017-11-20T14:54:40.115Z,20.29
2017-11-20T14:55:53.298Z,20.21
2017-11-20T14:57:06.330Z,20.2
2017-11-20T14:58:18.385Z,20.18
2017-11-20T14:59:30.905Z,20.18
2017-11-20T15:00:43.514Z,20.23
2017-11-20T15:01:55.643Z,20.28
2017-11-20T15:03:08.662Z,20.43
2017-11-20T15:04:21.241Z,20.43
2017-11-20T15:05:34.003Z,20.48
2017-11-20T15:06:46.558Z,20.5
2017-11-20T15:07:59.115Z,20.57
2017-11-20T15:09:11.671Z,20.59
2017-11-20T15:10:24.591Z,20.54
2017-11-20T15:11:37.650Z,20.48
2017-11-20T15:12:50.639Z,20.54
2017-11-20T15:14:03.637Z,20.57
2017-11-20T15:15:16.585Z,20.43
2017-11-20T15:16:29.115Z,20.23
2017-11-20T15:17:42.075Z,20.28
2017-11-20T15:18:55.107Z,20.18
2017-11-20T15:20:08.112Z,20.05
2017-11-20T15:21:20.646Z,20.14
2017-11-20T15:22:33.172Z,20.08
2017-11-20T15:23:45.720Z,20.05
2017-11-20T15:24:58.251Z,20.1
2017-11-20T15:26:10.787Z,20.18
2017-11-20T15:27:23.777Z,20.06
2017-11-20T15:28:36.351Z,20.1
2017-11-20T15:29:49.327Z,20.1
2017-11-20T15:31:02.309Z,20.18
2017-11-20T15:32:15.311Z,20.31
2017-11-20T15:33:28.297Z,20.47
2017-11-20T15:34:41.330Z,20.55
2017-11-20T15:35:54.550Z,20.5
2017-11-20T15:37:07.071Z,20.57
2017-11-20T15:38:19.609Z,20.5
2017-11-20T15:39:32.590Z,20.66
2017-11-20T15:40:45.624Z,20.66
2017-11-20T15:41:58.676Z,20.74
2017-11-20T15:43:11.649Z,20.92